createdAt,value
2023-07-28T06:40:11.388Z,19.35
2023-07-28T06:42:39.051Z,19.37
2023-07-28T06:45:07.298Z,19.44
2023-07-28T06:47:34.803Z,19.57
2023-07-28T06:50:02.070Z,19.61
2023-07-28T06:52:29.454Z,19.61
2023-07-28T06:54:56.825Z,19.67
2023-07-28T06:57:25.565Z,19.82
2023-07-28T06:59:52.948Z,19.88
2023-07-28T07:02:20.379Z,19.91
2023-07-28T07:04:48.031Z,19.85
2023-07-28T07:07:15.441Z,19.91
2023-07-28T07:09:42.916Z,19.99
2023-07-28T07:12:10.703Z,20.00
2023-07-28T07:14:39.920Z,20.00
2023-07-28T07:17:09.527Z,20.04
2023-07-28T07:19:37.188Z,20.15
2023-07-28T07:22:04.942Z,20.18
2023-07-28T07:24:32.279Z,20.19
2023-07-28T07:26:59.543Z,20.25
2023-07-28T07:29:26.793Z,20.27
2023-07-28T07:31:57.432Z,20.30
2023-07-28T07:34:24.997Z,20.34
2023-07-28T07:36:52.334Z,20.41
2023-07-28T07:39:19.818Z,20.47
2023-07-28T07:41:47.204Z,20.51
2023-07-28T07:44:14.531Z,20.53
2023-07-28T07:46:42.295Z,20.51
2023-07-28T07:49:13.111Z,20.54
2023-07-28T07:51:40.349Z,20.61
2023-07-28T07:54:07.818Z,20.73
2023-07-28T07:56:35.246Z,20.78
2023-07-28T07:59:02.686Z,20.84
2023-07-28T08:01:30.012Z,20.92
2023-07-28T08:03:57.387Z,20.94
2023-07-28T08:06:26.137Z,21.05
2023-07-28T08:08:55.106Z,21.18
2023-07-28T08:11:22.375Z,21.29
2023-07-28T08:13:49.832Z,21.35
2023-07-28T08:16:17.294Z,21.39
2023-07-28T08:18:44.614Z,21.54
2023-07-28T08:21:11.919Z,21.64
2023-07-28T08:23:40.663Z,21.73
2023-07-28T08:26:08.142Z,21.84
2023-07-28T08:28:35.437Z,21.86
2023-07-28T08:31:02.776Z,21.76
2023-07-28T08:33:30.052Z,21.84
2023-07-28T08:35:57.359Z,21.94
2023-07-28T08:38:24.696Z,22.08
2023-07-28T08:40:53.492Z,22.22
2023-07-28T08:43:20.789Z,22.32
2023-07-28T08:45:48.390Z,22.52
2023-07-28T08:48:16.227Z,22.77
2023-07-28T08:50:43.601Z,22.82
2023-07-28T08:53:11.203Z,22.87
2023-07-28T08:55:38.485Z,22.94
2023-07-28T08:58:18.493Z,23.15
2023-07-28T09:00:46.005Z,23.10
2023-07-28T09:03:13.321Z,23.27
2023-07-28T09:05:41.847Z,23.37
2023-07-28T09:08:09.309Z,23.34
2023-07-28T09:10:46.935Z,23.32
2023-07-28T09:13:17.510Z,23.39
2023-07-28T09:16:05.367Z,23.65
2023-07-28T09:18:33.135Z,23.70
2023-07-28T09:21:00.550Z,23.93
2023-07-28T09:23:31.938Z,24.04
2023-07-28T09:26:06.281Z,24.02
2023-07-28T09:28:40.239Z,23.96
2023-07-28T09:31:11.318Z,24.03
2023-07-28T09:33:43.915Z,24.14
2023-07-28T09:36:12.825Z,24.30
2023-07-28T09:38:43.734Z,24.27
2023-07-28T09:41:12.801Z,24.37
2023-07-28T09:43:42.338Z,24.51
2023-07-28T09:46:12.140Z,24.41
2023-07-28T09:48:42.197Z,24.52
2023-07-28T09:51:22.201Z,24.61
2023-07-28T09:53:54.172Z,24.67
2023-07-28T09:56:29.583Z,24.72
2023-07-28T09:59:05.299Z,24.75
2023-07-28T10:01:35.268Z,24.93
2023-07-28T10:04:05.343Z,25.02
2023-07-28T10:06:38.039Z,25.34
2023-07-28T10:09:07.835Z,25.46
2023-07-28T10:11:41.768Z,25.46
2023-07-28T10:14:15.410Z,25.54
2023-07-28T10:16:50.911Z,25.58
2023-07-28T10:19:21.791Z,25.71
2023-07-28T10:22:00.890Z,25.84
2023-07-28T10:24:57.671Z,25.86
2023-07-28T10:27:32.579Z,25.94
2023-07-28T10:30:06.133Z,26.33
2023-07-28T10:32:42.396Z,26.65
2023-07-28T10:35:24.595Z,26.53
2023-07-28T10:37:52.490Z,26.57
2023-07-28T10:40:29.570Z,26.63
2023-07-28T10:42:58.779Z,26.59
2023-07-28T10:45:31.316Z,26.64
2023-07-28T10:48:02.591Z,26.83
2023-07-28T10:50:32.521Z,26.86
2023-07-28T10:53:03.852Z,26.94
2023-07-28T10:55:32.032Z,26.95
2023-07-28T10:58:01.762Z,26.91
2023-07-28T11:00:30.567Z,26.94
2023-07-28T11:03:03.983Z,27.05
2023-07-28T11:05:32.036Z,27.42
2023-07-28T11:08:01.984Z,27.69
2023-07-28T11:10:31.702Z,28.04
2023-07-28T11:13:06.835Z,28.49
2023-07-28T11:15:48.534Z,28.97
2023-07-28T11:18:20.381Z,29.08
2023-07-28T11:20:52.188Z,29.81
2023-07-28T11:23:24.752Z,30.34
2023-07-28T11:25:53.571Z,30.16
2023-07-28T11:28:21.582Z,30.72
2023-07-28T11:30:49.323Z,31.00
2023-07-28T11:33:18.596Z,31.19
2023-07-28T11:35:47.755Z,31.49
2023-07-28T11:38:16.922Z,31.59
2023-07-28T11:40:46.147Z,32.24
2023-07-28T11:43:14.192Z,32.72
2023-07-28T11:45:48.036Z,32.72
2023-07-28T11:48:16.792Z,32.87
2023-07-28T11:50:47.583Z,33.12
2023-07-28T11:53:16.868Z,33.49
2023-07-28T11:55:44.638Z,33.72
2023-07-28T11:58:13.397Z,33.54
2023-07-28T12:00:44.024Z,34.02
2023-07-28T12:03:16.403Z,34.00
2023-07-28T12:08:38.621Z,34.81
2023-07-28T12:19:11.884Z,35.07
2023-07-28T12:21:40.666Z,35.44
2023-07-28T12:24:09.152Z,34.59
2023-07-28T12:26:39.672Z,35.55
2023-07-28T12:29:11.612Z,36.36
2023-07-28T12:34:10.498Z,34.82
2023-07-28T12:41:42.164Z,34.67
2023-07-28T12:44:12.984Z,35.33
2023-07-28T12:46:42.473Z,35.22
2023-07-28T12:49:21.532Z,34.95
2023-07-28T12:54:20.945Z,35.51
2023-07-28T12:56:48.453Z,35.13
2023-07-28T13:01:47.156Z,34.81
2023-07-28T13:04:14.551Z,33.99
2023-07-28T13:06:42.400Z,33.65
2023-07-28T13:14:11.653Z,31.03
2023-07-28T13:16:39.374Z,30.99
2023-07-28T13:19:06.938Z,30.60
2023-07-28T13:21:34.874Z,30.48
2023-07-28T13:24:02.354Z,30.28
2023-07-28T13:26:29.644Z,29.89
2023-07-28T13:29:00.030Z,29.69
2023-07-28T13:31:27.412Z,29.79
2023-07-28T13:33:55.742Z,29.65
2023-07-28T13:36:24.725Z,29.61
2023-07-28T13:38:52.183Z,29.51
2023-07-28T13:41:19.512Z,29.31
2023-07-28T13:43:46.807Z,29.30
2023-07-28T13:46:15.552Z,29.08
2023-07-28T13:48:52.766Z,29.04
2023-07-28T13:51:25.997Z,29.06
2023-07-28T13:56:29.359Z,28.99
2023-07-28T13:58:56.661Z,28.87
2023-07-28T14:01:25.469Z,28.59
2023-07-28T14:03:52.948Z,28.66
2023-07-28T14:06:20.753Z,28.68
2023-07-28T14:08:47.994Z,28.76
2023-07-28T14:11:15.326Z,28.73
2023-07-28T14:13:42.582Z,28.76
2023-07-28T14:16:11.277Z,28.82
2023-07-28T14:18:41.647Z,28.80
2023-07-28T14:21:09.581Z,28.75
2023-07-28T14:23:37.108Z,28.68
2023-07-28T14:26:04.501Z,28.76
2023-07-28T14:28:31.936Z,28.72
2023-07-28T14:30:59.278Z,28.38
2023-07-28T14:33:26.739Z,28.53
2023-07-28T14:35:55.462Z,28.56
2023-07-28T14:38:22.759Z,28.58
2023-07-28T14:40:53.230Z,28.58
2023-07-28T14:43:20.722Z,28.65
2023-07-28T14:45:50.674Z,28.62
2023-07-28T14:48:18.130Z,28.56
2023-07-28T14:50:45.427Z,28.48
2023-07-28T14:53:34.123Z,28.48
2023-07-28T14:56:02.237Z,28.51
2023-07-28T14:58:30.207Z,28.52
2023-07-28T15:00:57.748Z,28.44
2023-07-28T15:03:27.919Z,28.41
2023-07-28T15:05:56.358Z,28.31
2023-07-28T15:08:24.028Z,28.39
2023-07-28T15:10:52.758Z,28.21
2023-07-28T15:13:20.281Z,28.22
2023-07-28T15:15:48.027Z,28.18
2023-07-28T15:18:24.366Z,28.27
2023-07-28T15:20:51.750Z,28.25
2023-07-28T15:23:19.143Z,28.20
2023-07-28T15:25:48.118Z,28.25
2023-07-28T15:28:17.056Z,28.12
2023-07-28T15:30:47.640Z,28.20
2023-07-28T15:33:16.297Z,28.15
2023-07-28T15:35:43.583Z,28.07
2023-07-28T15:38:10.947Z,28.05
2023-07-28T15:40:38.224Z,28.05
2023-07-28T15:43:05.544Z,28.00
2023-07-28T15:45:34.787Z,28.00
2023-07-28T15:48:02.280Z,28.05
2023-07-28T15:50:29.820Z,27.91
2023-07-28T15:52:57.396Z,27.91
2023-07-28T15:55:24.774Z,27.94
2023-07-28T15:57:52.050Z,27.89
2023-07-28T16:00:19.499Z,27.94
2023-07-28T16:02:48.314Z,28.04
2023-07-28T16:05:15.676Z,28.00
2023-07-28T16:07:43.002Z,27.97
2023-07-28T16:10:11.211Z,27.96
2023-07-28T16:12:38.775Z,27.98
2023-07-28T16:15:07.028Z,27.96
2023-07-28T16:17:34.420Z,27.96
2023-07-28T16:20:03.462Z,28.04
2023-07-28T16:22:30.755Z,28.04
2023-07-28T16:24:58.377Z,27.90
2023-07-28T16:27:25.586Z,27.96
2023-07-28T16:29:52.972Z,27.77
2023-07-28T16:32:20.351Z,27.77
2023-07-28T16:34:47.801Z,27.69
2023-07-28T16:37:17.577Z,27.67
2023-07-28T16:39:44.855Z,27.79
2023-07-28T16:42:12.104Z,27.74
2023-07-28T16:44:40.100Z,27.69
2023-07-28T16:47:07.914Z,27.64
2023-07-28T16:49:35.345Z,27.60
2023-07-28T16:52:02.950Z,27.57
2023-07-28T16:54:32.035Z,27.59
2023-07-28T16:56:59.824Z,27.60
2023-07-28T16:59:27.175Z,27.43
2023-07-28T17:01:54.586Z,27.31
2023-07-28T17:04:21.912Z,27.21
2023-07-28T17:06:49.387Z,27.16
2023-07-28T17:09:16.823Z,27.18
2023-07-28T17:11:45.616Z,27.16
2023-07-28T17:14:13.152Z,27.09
2023-07-28T17:16:40.558Z,27.01
2023-07-28T17:19:07.944Z,26.92
2023-07-28T17:21:35.630Z,26.92
2023-07-28T17:24:03.141Z,26.77
2023-07-28T17:26:30.500Z,26.67
2023-07-28T17:28:59.383Z,26.54
2023-07-28T17:31:26.698Z,26.57
2023-07-28T17:33:53.975Z,26.51
2023-07-28T17:36:21.329Z,26.50
2023-07-28T17:38:48.628Z,26.42
2023-07-28T17:41:16.089Z,26.35
2023-07-28T17:43:44.439Z,26.23
2023-07-28T17:46:13.284Z,26.09
2023-07-28T17:48:40.597Z,25.99
2023-07-28T17:51:07.907Z,25.94
2023-07-28T17:53:35.206Z,25.81
2023-07-28T17:56:02.562Z,25.74
2023-07-28T17:58:29.892Z,25.70
2023-07-28T18:00:57.478Z,25.77
2023-07-28T18:03:27.067Z,25.60
2023-07-28T18:05:55.005Z,25.47
2023-07-28T18:08:22.278Z,25.37
2023-07-28T18:10:49.556Z,25.23
2023-07-28T18:13:17.026Z,25.08
2023-07-28T18:15:44.606Z,25.06
2023-07-28T18:18:12.039Z,24.90
2023-07-28T18:20:40.814Z,24.85
2023-07-28T18:23:08.104Z,24.72
2023-07-28T18:25:35.784Z,24.68
2023-07-28T18:28:03.814Z,24.65
2023-07-28T18:30:31.554Z,24.64
2023-07-28T18:32:58.934Z,24.62
2023-07-28T18:35:26.432Z,24.65
2023-07-28T18:37:55.173Z,24.61
2023-07-28T18:40:22.583Z,24.65
2023-07-28T18:42:49.869Z,24.64
2023-07-28T18:45:17.406Z,24.58
2023-07-28T18:47:44.869Z,24.54
2023-07-28T18:50:12.491Z,24.57
2023-07-28T18:52:40.630Z,24.54
2023-07-28T18:55:10.162Z,24.45
2023-07-28T18:57:37.457Z,24.50
2023-07-28T19:00:08.170Z,24.58
2023-07-28T19:02:35.527Z,24.55
2023-07-28T19:05:03.005Z,24.50
2023-07-28T19:07:30.302Z,24.38
2023-07-28T19:09:57.634Z,24.41
2023-07-28T19:12:26.423Z,24.41
2023-07-28T19:14:53.655Z,24.23
2023-07-28T19:17:22.255Z,24.14
2023-07-28T19:19:49.714Z,24.04
2023-07-28T19:22:17.060Z,24.00
2023-07-28T19:24:44.332Z,23.99
2023-07-28T19:27:11.644Z,24.04
2023-07-28T19:29:40.412Z,23.80
2023-07-28T19:32:08.307Z,23.68
2023-07-28T19:34:36.012Z,23.62
2023-07-28T19:37:03.273Z,23.61
2023-07-28T19:39:30.598Z,23.69
2023-07-28T19:41:57.924Z,23.59
2023-07-28T19:44:36.386Z,23.52
2023-07-28T19:47:10.133Z,23.39
2023-07-28T19:49:37.418Z,23.31
2023-07-28T19:52:05.935Z,23.20
2023-07-28T19:54:35.401Z,23.28
2023-07-28T19:57:03.130Z,23.12
2023-07-28T19:59:30.401Z,23.06
2023-07-28T20:01:57.715Z,23.01
2023-07-28T20:04:27.494Z,22.94
2023-07-28T20:06:54.980Z,23.03
2023-07-28T20:09:28.166Z,23.04
2023-07-28T20:11:55.347Z,22.99
2023-07-28T20:14:22.665Z,22.87
2023-07-28T20:16:50.089Z,22.83
2023-07-28T20:19:17.454Z,22.82
2023-07-28T20:21:46.644Z,22.80
2023-07-28T20:24:13.854Z,23.03
2023-07-28T20:26:41.318Z,23.10
2023-07-28T20:29:08.981Z,23.14
2023-07-28T20:31:36.262Z,22.87
2023-07-28T20:34:03.476Z,22.82
2023-07-28T20:36:30.939Z,22.79
2023-07-28T20:38:59.664Z,22.67
2023-07-28T20:41:26.913Z,22.70
2023-07-28T20:43:55.239Z,22.74
2023-07-28T20:46:22.706Z,22.67
2023-07-28T20:48:49.914Z,22.80
2023-07-28T20:51:17.070Z,22.67
2023-07-28T20:53:44.358Z,22.64
2023-07-28T20:56:13.561Z,22.69
2023-07-28T20:58:42.211Z,22.55
2023-07-28T21:01:09.864Z,22.53
2023-07-28T21:03:37.275Z,22.46
2023-07-28T21:06:04.568Z,22.56
2023-07-28T21:08:31.853Z,22.70
2023-07-28T21:10:59.882Z,22.60
2023-07-28T21:13:28.452Z,22.56
2023-07-28T21:15:55.780Z,22.48
2023-07-28T21:18:23.859Z,22.44
2023-07-28T21:20:51.059Z,22.34
2023-07-28T21:23:18.278Z,22.57
2023-07-28T21:25:45.742Z,22.55
2023-07-28T21:28:13.142Z,22.55
2023-07-28T21:30:43.923Z,22.39
2023-07-28T21:33:11.183Z,22.32
2023-07-28T21:35:38.382Z,22.35
2023-07-28T21:38:05.760Z,22.34
2023-07-28T21:40:33.123Z,22.49
2023-07-28T21:43:00.410Z,22.46
2023-07-28T21:45:27.626Z,22.25
2023-07-28T21:47:56.268Z,22.14
2023-07-28T21:50:23.557Z,22.38
2023-07-28T21:52:50.800Z,22.44
2023-07-28T21:55:18.138Z,22.55
2023-07-28T21:57:47.317Z,22.42
2023-07-28T22:00:15.556Z,22.39
2023-07-28T22:02:43.068Z,22.25
2023-07-28T22:05:13.077Z,22.18
2023-07-28T22:07:40.535Z,22.11
2023-07-28T22:10:08.832Z,22.11
2023-07-28T22:12:36.127Z,22.08
2023-07-28T22:15:03.665Z,22.05
2023-07-28T22:17:31.077Z,22.09
2023-07-28T22:19:58.719Z,22.14
2023-07-28T22:22:27.440Z,22.29
2023-07-28T22:24:54.626Z,22.22
2023-07-28T22:27:21.966Z,22.42
2023-07-28T22:29:52.073Z,22.41
2023-07-28T22:32:19.344Z,22.53
2023-07-28T22:34:46.539Z,22.52
2023-07-28T22:37:13.811Z,22.28
2023-07-28T22:39:42.512Z,22.19
2023-07-28T22:42:10.007Z,22.14
2023-07-28T22:44:37.252Z,22.29
2023-07-28T22:47:04.826Z,22.26
2023-07-28T22:49:32.050Z,22.28
2023-07-28T22:51:59.229Z,22.05
2023-07-28T22:54:26.402Z,22.02
2023-07-28T22:56:54.933Z,22.01
2023-07-28T22:59:22.177Z,22.01
2023-07-28T23:01:49.392Z,22.01
2023-07-28T23:04:16.704Z,21.97
2023-07-28T23:06:43.955Z,21.96
2023-07-28T23:09:11.678Z,21.93
2023-07-28T23:11:38.939Z,21.98
2023-07-28T23:14:07.686Z,22.01
2023-07-28T23:16:35.253Z,21.98
2023-07-28T23:19:02.696Z,21.96
2023-07-28T23:21:29.927Z,22.07
2023-07-28T23:23:57.577Z,22.05
2023-07-28T23:26:25.230Z,21.93
2023-07-28T23:28:52.448Z,21.94
2023-07-28T23:31:21.107Z,21.94
2023-07-28T23:33:48.370Z,21.96
2023-07-28T23:36:15.717Z,21.94
2023-07-28T23:38:42.906Z,21.94
2023-07-28T23:41:10.252Z,21.93
2023-07-28T23:43:37.500Z,22.00
2023-07-28T23:46:04.802Z,22.17
2023-07-28T23:48:33.534Z,22.12
2023-07-28T23:51:01.259Z,22.01
2023-07-28T23:53:29.464Z,21.94
2023-07-28T23:55:56.815Z,22.19
2023-07-28T23:58:24.190Z,22.15
